Time;durP1;ratioP1;P1;durP2;ratioP2;P2;SDS_P1;SDS_P2;PMS_P1;PMS_P2;Temp;Humidity;BMP_temperature;BMP_pressure;BME280_temperature;BME280_humidity;BME280_pressure;Samples;Min_cycle;Max_cycle;Signal;HPM_P1;HPM_P2
2022/09/14 00:00:11;;;;;;;3.13;1.27;;;;;;;;;;5066318;28;20208;-60
2022/09/14 00:02:38;;;;;;;1.93;1.43;;;;;;;;;;5068660;28;20209;-60
2022/09/14 00:05:07;;;;;;;1.33;1.23;;;;;;;;;;5057274;28;20715;-60
2022/09/14 00:07:35;;;;;;;4.20;1.70;;;;;;;;;;5055242;28;20229;-60
2022/09/14 00:10:03;;;;;;;2.83;1.43;;;;;;;;;;5048195;28;20205;-60
2022/09/14 00:12:31;;;;;;;3.87;1.87;;;;;;;;;;5055837;28;20330;-60
2022/09/14 00:14:58;;;;;;;2.40;1.47;;;;;;;;;;5059643;28;20239;-60
2022/09/14 00:17:28;;;;;;;3.67;1.83;;;;;;;;;;5066649;28;20202;-60
2022/09/14 00:19:56;;;;;;;4.20;1.73;;;;;;;;;;5055772;28;20201;-60
2022/09/14 00:22:24;;;;;;;2.07;1.67;;;;;;;;;;5067541;28;20212;-60
2022/09/14 00:24:52;;;;;;;2.67;1.40;;;;;;;;;;5059432;28;20229;-60
2022/09/14 00:27:19;;;;;;;4.47;2.00;;;;;;;;;;5055278;28;20210;-60
2022/09/14 00:29:48;;;;;;;3.13;1.67;;;;;;;;;;5057982;28;20211;-60
2022/09/14 00:32:17;;;;;;;3.90;2.07;;;;;;;;;;5053121;28;20279;-60
2022/09/14 00:34:46;;;;;;;4.43;1.87;;;;;;;;;;5055787;28;20752;-60
2022/09/14 00:37:14;;;;;;;4.83;1.80;;;;;;;;;;5055902;28;20214;-60
2022/09/14 00:39:42;;;;;;;2.27;1.97;;;;;;;;;;5051463;28;20201;-60
2022/09/14 00:42:14;;;;;;;4.00;1.80;;;;;;;;;;5055625;28;20199;-60
2022/09/14 00:45:00;;;;;;;2.60;1.77;;;;;;;;;;5053904;28;20225;-61
2022/09/14 00:47:29;;;;;;;4.17;1.90;;;;;;;;;;5054811;28;20212;-60
2022/09/14 00:50:00;;;;;;;3.60;2.10;;;;;;;;;;5057107;28;20211;-60
2022/09/14 00:52:31;;;;;;;3.93;1.77;;;;;;;;;;5057378;28;20232;-60
2022/09/14 00:55:01;;;;;;;2.07;1.87;;;;;;;;;;5053868;28;20224;-60
2022/09/14 00:57:33;;;;;;;5.30;1.67;;;;;;;;;;5052066;28;20251;-60
2022/09/14 01:00:02;;;;;;;3.10;1.70;;;;;;;;;;5057269;28;20679;-60
2022/09/14 01:02:30;;;;;;;3.90;1.90;;;;;;;;;;5055517;28;20206;-60
2022/09/14 01:04:59;;;;;;;4.57;1.90;;;;;;;;;;5059585;28;20225;-60
2022/09/14 01:07:32;;;;;;;7.43;3.30;;;;;;;;;;5062803;28;20206;-60
2022/09/14 01:10:04;;;;;;;5.60;1.90;;;;;;;;;;5055537;28;20203;-60
2022/09/14 01:12:35;;;;;;;3.60;1.93;;;;;;;;;;5069425;28;20228;-60
2022/09/14 01:15:05;;;;;;;5.37;1.90;;;;;;;;;;5068489;28;20227;-60
2022/09/14 01:17:36;;;;;;;3.73;1.80;;;;;;;;;;5071943;28;20213;-60
2022/09/14 01:20:11;;;;;;;2.87;1.60;;;;;;;;;;5059360;28;20217;-60
2022/09/14 01:22:43;;;;;;;3.00;1.77;;;;;;;;;;5067907;28;20200;-60
2022/09/14 01:25:19;;;;;;;3.50;1.90;;;;;;;;;;5055732;28;20223;-60
2022/09/14 01:27:50;;;;;;;5.43;1.83;;;;;;;;;;5070117;28;20207;-60
2022/09/14 01:30:19;;;;;;;3.33;1.80;;;;;;;;;;5062826;28;20226;-60
2022/09/14 01:32:51;;;;;;;4.87;2.10;;;;;;;;;;5066055;28;20220;-60
2022/09/14 01:35:22;;;;;;;5.73;2.33;;;;;;;;;;5064430;28;20211;-60
2022/09/14 01:37:51;;;;;;;2.30;1.70;;;;;;;;;;5061206;28;20207;-60
2022/09/14 01:40:22;;;;;;;5.00;2.00;;;;;;;;;;5068144;28;20208;-60
2022/09/14 01:42:52;;;;;;;6.77;2.93;;;;;;;;;;5047507;28;20212;-60
2022/09/14 01:45:22;;;;;;;3.97;1.90;;;;;;;;;;5065174;28;20209;-60
2022/09/14 01:47:53;;;;;;;2.17;1.90;;;;;;;;;;5070058;28;20668;-60
2022/09/14 01:50:23;;;;;;;3.73;1.70;;;;;;;;;;5070918;28;20212;-60
2022/09/14 01:52:54;;;;;;;3.80;1.80;;;;;;;;;;5060421;28;20243;-60
2022/09/14 01:55:25;;;;;;;6.30;2.30;;;;;;;;;;5060798;28;20649;-60
2022/09/14 01:57:58;;;;;;;2.77;1.87;;;;;;;;;;5057384;28;20213;-60
2022/09/14 02:00:27;;;;;;;2.23;1.77;;;;;;;;;;5065580;28;20209;-60
2022/09/14 02:02:58;;;;;;;2.60;2.23;;;;;;;;;;5071665;28;20196;-60
2022/09/14 02:05:28;;;;;;;4.77;2.03;;;;;;;;;;5066552;28;20207;-60
2022/09/14 02:07:56;;;;;;;4.80;2.30;;;;;;;;;;5060616;28;20203;-60
2022/09/14 02:10:24;;;;;;;6.23;2.40;;;;;;;;;;5067460;28;20216;-60
2022/09/14 02:12:53;;;;;;;3.60;2.07;;;;;;;;;;5055788;28;20231;-60
2022/09/14 02:15:23;;;;;;;4.13;2.20;;;;;;;;;;5049252;28;20583;-60
2022/09/14 02:17:51;;;;;;;2.37;2.00;;;;;;;;;;5068979;28;20219;-60
2022/09/14 02:20:21;;;;;;;4.53;2.10;;;;;;;;;;5056019;28;20203;-60
2022/09/14 02:22:50;;;;;;;6.63;2.37;;;;;;;;;;5047014;28;20210;-60
2022/09/14 02:25:19;;;;;;;4.07;1.97;;;;;;;;;;5068624;28;20202;-60
2022/09/14 02:27:47;;;;;;;2.57;2.17;;;;;;;;;;5053885;28;20208;-60
2022/09/14 02:30:16;;;;;;;2.50;2.30;;;;;;;;;;5061669;28;20572;-60
2022/09/14 02:32:50;;;;;;;2.17;1.97;;;;;;;;;;5043422;28;20624;-60
2022/09/14 02:35:22;;;;;;;3.97;2.23;;;;;;;;;;5069590;28;20209;-60
2022/09/14 02:37:55;;;;;;;4.63;2.27;;;;;;;;;;5048200;28;20201;-60
2022/09/14 02:40:28;;;;;;;4.47;2.13;;;;;;;;;;5069139;28;20218;-60
2022/09/14 02:43:00;;;;;;;3.83;2.30;;;;;;;;;;5056017;28;20203;-60
2022/09/14 02:45:30;;;;;;;4.40;2.00;;;;;;;;;;5056249;28;20220;-60
2022/09/14 02:48:03;;;;;;;3.37;2.20;;;;;;;;;;5073400;28;20205;-61
2022/09/14 02:50:35;;;;;;;3.17;2.33;;;;;;;;;;5060413;28;20207;-60
2022/09/14 02:53:06;;;;;;;5.33;2.20;;;;;;;;;;5060315;28;20231;-61
2022/09/14 02:55:35;;;;;;;5.30;2.60;;;;;;;;;;5066627;28;20216;-61
2022/09/14 02:58:04;;;;;;;5.43;2.30;;;;;;;;;;5058314;28;20207;-61
2022/09/14 03:00:33;;;;;;;2.50;2.20;;;;;;;;;;5050349;28;20294;-61
2022/09/14 03:03:03;;;;;;;5.00;2.30;;;;;;;;;;5053253;28;20199;-61
2022/09/14 03:05:31;;;;;;;3.87;2.10;;;;;;;;;;5057964;28;20206;-61
2022/09/14 03:08:00;;;;;;;2.00;1.90;;;;;;;;;;5069234;28;20223;-61
2022/09/14 03:10:28;;;;;;;7.30;3.67;;;;;;;;;;5060846;28;20206;-61
2022/09/14 03:12:56;;;;;;;3.80;2.00;;;;;;;;;;5058699;28;20206;-61
2022/09/14 03:15:25;;;;;;;4.03;2.50;;;;;;;;;;5067233;28;20211;-61
2022/09/14 03:17:53;;;;;;;3.63;1.90;;;;;;;;;;5062800;28;20209;-61
2022/09/14 03:20:23;;;;;;;5.00;2.40;;;;;;;;;;5068000;28;20213;-61
2022/09/14 03:22:52;;;;;;;4.70;2.10;;;;;;;;;;5058244;28;20218;-61
2022/09/14 03:25:21;;;;;;;4.20;2.00;;;;;;;;;;5056510;28;20215;-61
2022/09/14 03:27:50;;;;;;;2.50;1.80;;;;;;;;;;5058616;28;20676;-61
2022/09/14 03:30:18;;;;;;;3.63;2.00;;;;;;;;;;5060725;28;20212;-61
2022/09/14 03:32:46;;;;;;;4.70;2.10;;;;;;;;;;5066511;28;20221;-61
2022/09/14 03:35:14;;;;;;;3.10;2.17;;;;;;;;;;5066926;28;20233;-61
2022/09/14 03:37:44;;;;;;;4.93;2.80;;;;;;;;;;5058336;28;20215;-61
2022/09/14 03:40:13;;;;;;;2.37;2.17;;;;;;;;;;5066771;28;20203;-61
2022/09/14 03:42:48;;;;;;;4.30;2.63;;;;;;;;;;5047355;28;20234;-60
2022/09/14 03:45:17;;;;;;;5.73;2.60;;;;;;;;;;5052820;28;20624;-61
2022/09/14 03:47:45;;;;;;;3.90;2.27;;;;;;;;;;5055241;28;20206;-61
2022/09/14 03:50:14;;;;;;;2.73;2.20;;;;;;;;;;5058130;28;20207;-61
2022/09/14 03:52:42;;;;;;;2.67;2.40;;;;;;;;;;5056412;28;20233;-61
2022/09/14 03:55:11;;;;;;;4.73;2.70;;;;;;;;;;5058603;28;20226;-61
2022/09/14 03:57:39;;;;;;;4.07;2.27;;;;;;;;;;5054838;28;20302;-61
2022/09/14 04:00:08;;;;;;;4.10;2.57;;;;;;;;;;5063645;28;20202;-61
2022/09/14 04:02:36;;;;;;;5.03;2.20;;;;;;;;;;5067295;28;20202;-61
2022/09/14 04:05:04;;;;;;;3.90;2.63;;;;;;;;;;5065788;28;20248;-61
2022/09/14 04:07:32;;;;;;;2.77;2.00;;;;;;;;;;5056694;28;20202;-60
2022/09/14 04:10:00;;;;;;;3.83;2.17;;;;;;;;;;5065646;28;20206;-61
2022/09/14 04:12:34;;;;;;;4.63;2.23;;;;;;;;;;5056924;28;20207;-61
2022/09/14 04:15:02;;;;;;;2.67;1.77;;;;;;;;;;5067327;28;20233;-61
2022/09/14 04:17:30;;;;;;;3.83;2.07;;;;;;;;;;5062053;28;20676;-61
2022/09/14 04:19:58;;;;;;;3.43;2.10;;;;;;;;;;5063765;28;20209;-61
2022/09/14 04:22:26;;;;;;;4.20;2.23;;;;;;;;;;5051337;28;20573;-61
2022/09/14 04:24:54;;;;;;;9.83;4.40;;;;;;;;;;5058661;28;20243;-61
2022/09/14 04:27:22;;;;;;;3.03;2.10;;;;;;;;;;5059773;28;20594;-61
2022/09/14 04:29:51;;;;;;;5.53;2.30;;;;;;;;;;5063798;28;20675;-61
2022/09/14 04:32:19;;;;;;;4.23;2.30;;;;;;;;;;5064122;28;20205;-60
2022/09/14 04:34:48;;;;;;;3.70;2.17;;;;;;;;;;5062581;28;20228;-60
2022/09/14 04:37:16;;;;;;;3.43;1.93;;;;;;;;;;5063349;28;20656;-60
2022/09/14 04:39:44;;;;;;;2.30;2.10;;;;;;;;;;5057634;28;20204;-61
2022/09/14 04:42:12;;;;;;;3.47;2.33;;;;;;;;;;5051653;28;20209;-61
2022/09/14 04:44:40;;;;;;;3.73;2.40;;;;;;;;;;5058126;28;20727;-60
2022/09/14 04:47:09;;;;;;;2.60;2.30;;;;;;;;;;5059990;28;20686;-60
2022/09/14 04:49:37;;;;;;;4.37;2.30;;;;;;;;;;5058773;28;20547;-60
2022/09/14 04:52:05;;;;;;;4.90;2.37;;;;;;;;;;5058835;28;20222;-60
2022/09/14 04:54:33;;;;;;;4.50;2.03;;;;;;;;;;5062660;28;20244;-61
2022/09/14 04:57:01;;;;;;;3.60;2.23;;;;;;;;;;5071981;28;20550;-61
2022/09/14 04:59:29;;;;;;;3.47;2.37;;;;;;;;;;5069152;28;20610;-60
2022/09/14 05:01:57;;;;;;;8.37;2.50;;;;;;;;;;5074889;28;20199;-61
2022/09/14 05:04:27;;;;;;;3.00;2.07;;;;;;;;;;5055497;28;20225;-60
2022/09/14 05:06:55;;;;;;;3.87;2.20;;;;;;;;;;5046756;28;20207;-61
2022/09/14 05:09:23;;;;;;;5.63;2.27;;;;;;;;;;5060847;28;20662;-61
2022/09/14 05:11:51;;;;;;;3.83;2.67;;;;;;;;;;5067731;28;20206;-61
2022/09/14 05:14:19;;;;;;;5.93;2.80;;;;;;;;;;5058955;28;20234;-61
2022/09/14 05:16:47;;;;;;;3.23;2.23;;;;;;;;;;5066948;28;20650;-61
2022/09/14 05:19:17;;;;;;;3.93;2.27;;;;;;;;;;5058835;28;20212;-61
2022/09/14 05:21:46;;;;;;;3.47;2.23;;;;;;;;;;5066298;28;20222;-61
2022/09/14 05:24:16;;;;;;;3.53;2.30;;;;;;;;;;5058859;28;20240;-61
2022/09/14 05:26:45;;;;;;;4.73;2.33;;;;;;;;;;5056484;28;20235;-61
2022/09/14 05:29:15;;;;;;;8.13;2.27;;;;;;;;;;5059957;28;20211;-60
2022/09/14 05:31:43;;;;;;;3.37;2.53;;;;;;;;;;5060649;28;20203;-61
2022/09/14 05:34:11;;;;;;;5.53;2.50;;;;;;;;;;5062273;28;20218;-61
2022/09/14 05:36:39;;;;;;;7.27;2.30;;;;;;;;;;5057389;28;20208;-61
2022/09/14 05:39:09;;;;;;;5.67;2.03;;;;;;;;;;5065486;28;20228;-60
2022/09/14 05:41:37;;;;;;;7.07;2.30;;;;;;;;;;5058926;28;20659;-61
2022/09/14 05:44:05;;;;;;;2.30;2.10;;;;;;;;;;5060486;28;20226;-60
2022/09/14 05:46:33;;;;;;;3.10;2.17;;;;;;;;;;5059504;28;20658;-61
2022/09/14 05:49:02;;;;;;;4.87;2.50;;;;;;;;;;5057788;28;20204;-61
2022/09/14 05:51:30;;;;;;;5.53;2.30;;;;;;;;;;5060493;28;20230;-61
2022/09/14 05:53:58;;;;;;;3.17;2.50;;;;;;;;;;5061572;28;20219;-61
2022/09/14 05:56:28;;;;;;;4.80;2.50;;;;;;;;;;5068187;28;20215;-61
2022/09/14 05:58:57;;;;;;;6.50;2.30;;;;;;;;;;5063562;28;20195;-61
2022/09/14 06:01:26;;;;;;;3.10;2.33;;;;;;;;;;5071936;28;20219;-61
2022/09/14 06:03:54;;;;;;;5.33;2.17;;;;;;;;;;5068248;28;20654;-61
2022/09/14 06:06:23;;;;;;;4.30;2.27;;;;;;;;;;5065804;28;20204;-60
2022/09/14 06:08:52;;;;;;;5.67;2.23;;;;;;;;;;5067976;28;20576;-61
2022/09/14 06:11:21;;;;;;;4.90;2.23;;;;;;;;;;5065661;28;20201;-61
2022/09/14 06:13:51;;;;;;;5.13;1.80;;;;;;;;;;5062762;28;20218;-61
2022/09/14 06:16:20;;;;;;;4.77;1.70;;;;;;;;;;5063756;28;20219;-61
2022/09/14 06:18:48;;;;;;;4.10;1.70;;;;;;;;;;5067355;28;20225;-61
2022/09/14 06:21:18;;;;;;;6.40;1.83;;;;;;;;;;5062687;28;20234;-61
2022/09/14 06:23:47;;;;;;;3.70;1.30;;;;;;;;;;5068728;28;20244;-61
2022/09/14 06:26:16;;;;;;;2.07;1.37;;;;;;;;;;5061486;28;20235;-61
2022/09/14 06:28:45;;;;;;;2.40;1.23;;;;;;;;;;5054038;28;20667;-62
2022/09/14 06:31:16;;;;;;;3.87;1.40;;;;;;;;;;5059204;28;20568;-63
2022/09/14 06:33:46;;;;;;;2.33;1.37;;;;;;;;;;5066314;28;20221;-63
2022/09/14 06:36:16;;;;;;;2.40;1.00;;;;;;;;;;5061186;28;20553;-62
2022/09/14 06:38:44;;;;;;;3.80;1.73;;;;;;;;;;5057098;28;20292;-62
2022/09/14 06:41:13;;;;;;;12.30;1.67;;;;;;;;;;5073799;28;20211;-61
2022/09/14 06:43:42;;;;;;;2.80;1.30;;;;;;;;;;5053132;28;20232;-61
2022/09/14 06:46:11;;;;;;;2.23;1.20;;;;;;;;;;5059026;28;20205;-62
2022/09/14 06:48:41;;;;;;;4.23;1.30;;;;;;;;;;5059240;28;20203;-61
2022/09/14 06:51:14;;;;;;;2.10;1.50;;;;;;;;;;5067265;28;20213;-62
2022/09/14 06:53:42;;;;;;;1.30;1.20;;;;;;;;;;5073812;28;20252;-64
2022/09/14 06:56:10;;;;;;;1.50;1.10;;;;;;;;;;5057631;28;20229;-60
2022/09/14 06:58:38;;;;;;;2.23;1.23;;;;;;;;;;5063607;28;20209;-62
2022/09/14 07:01:07;;;;;;;2.37;1.10;;;;;;;;;;5052162;28;20293;-61
2022/09/14 07:03:37;;;;;;;2.90;1.10;;;;;;;;;;5053509;28;20222;-59
2022/09/14 07:06:07;;;;;;;3.50;1.43;;;;;;;;;;5063887;28;20678;-61
2022/09/14 07:08:35;;;;;;;4.10;1.33;;;;;;;;;;5067326;28;20205;-61
2022/09/14 07:11:04;;;;;;;5.03;1.67;;;;;;;;;;5046876;28;20209;-60
2022/09/14 07:13:32;;;;;;;3.53;1.50;;;;;;;;;;5052456;28;20515;-59
2022/09/14 07:16:00;;;;;;;3.37;1.43;;;;;;;;;;5059061;28;20284;-59
2022/09/14 07:18:31;;;;;;;5.83;1.50;;;;;;;;;;5057239;28;20215;-60
2022/09/14 07:21:03;;;;;;;4.83;1.30;;;;;;;;;;5065387;28;20647;-60
2022/09/14 07:23:35;;;;;;;2.27;1.40;;;;;;;;;;5066845;28;20224;-60
2022/09/14 07:26:04;;;;;;;1.93;1.30;;;;;;;;;;5068156;28;20204;-61
2022/09/14 07:28:31;;;;;;;1.70;1.33;;;;;;;;;;5068243;28;20211;-61
2022/09/14 07:31:00;;;;;;;1.30;1.20;;;;;;;;;;5067557;28;20237;-61
2022/09/14 07:33:28;;;;;;;2.57;1.20;;;;;;;;;;5067313;28;20222;-61
2022/09/14 07:36:04;;;;;;;2.13;1.30;;;;;;;;;;5064289;28;20219;-60
2022/09/14 07:38:34;;;;;;;3.80;1.50;;;;;;;;;;5064136;28;20198;-60
2022/09/14 07:41:19;;;;;;;2.90;1.40;;;;;;;;;;5067676;28;20241;-61
2022/09/14 07:43:48;;;;;;;1.47;1.30;;;;;;;;;;5061842;28;20222;-61
2022/09/14 07:46:16;;;;;;;2.70;1.80;;;;;;;;;;5062339;28;20662;-60
2022/09/14 07:48:44;;;;;;;2.50;1.70;;;;;;;;;;5066705;28;20201;-61
2022/09/14 07:51:13;;;;;;;1.60;1.50;;;;;;;;;;5061663;28;20671;-60
2022/09/14 07:53:43;;;;;;;2.57;1.30;;;;;;;;;;5064408;28;20232;-60
2022/09/14 07:56:12;;;;;;;2.37;1.50;;;;;;;;;;5062735;28;20217;-60
2022/09/14 07:58:40;;;;;;;2.47;1.50;;;;;;;;;;5062588;28;20215;-60
2022/09/14 08:01:10;;;;;;;2.47;1.40;;;;;;;;;;5056776;28;20203;-60
2022/09/14 08:03:39;;;;;;;4.27;1.30;;;;;;;;;;5053217;28;20271;-59
2022/09/14 08:06:08;;;;;;;7.50;2.00;;;;;;;;;;5060132;28;20315;-61
2022/09/14 08:08:36;;;;;;;2.57;1.80;;;;;;;;;;5064131;28;20207;-61
2022/09/14 08:11:07;;;;;;;2.57;1.40;;;;;;;;;;5060337;28;20205;-61
2022/09/14 08:13:36;;;;;;;3.40;1.70;;;;;;;;;;5066213;28;20220;-59
2022/09/14 08:16:08;;;;;;;3.23;1.40;;;;;;;;;;5064559;28;20586;-61
2022/09/14 08:18:38;;;;;;;3.13;1.40;;;;;;;;;;5064245;28;20198;-63
2022/09/14 08:21:06;;;;;;;4.27;1.50;;;;;;;;;;5062989;28;20539;-64
2022/09/14 08:23:35;;;;;;;3.43;1.40;;;;;;;;;;5057076;28;20235;-62
2022/09/14 08:26:04;;;;;;;3.20;1.50;;;;;;;;;;5058533;28;20576;-64
2022/09/14 08:28:34;;;;;;;1.23;1.13;;;;;;;;;;5048473;28;20288;-64
2022/09/14 08:31:03;;;;;;;1.00;1.00;;;;;;;;;;5051212;28;20224;-64
2022/09/14 08:33:32;;;;;;;2.33;1.20;;;;;;;;;;5048250;28;20228;-65
2022/09/14 08:36:00;;;;;;;1.53;1.20;;;;;;;;;;5066090;28;20213;-63
2022/09/14 08:38:28;;;;;;;1.30;1.20;;;;;;;;;;5056427;28;20218;-64
2022/09/14 08:40:56;;;;;;;1.93;1.17;;;;;;;;;;5061018;28;20212;-63
2022/09/14 08:43:25;;;;;;;3.20;1.07;;;;;;;;;;5055677;28;20235;-63
2022/09/14 08:45:58;;;;;;;1.27;1.17;;;;;;;;;;5057762;28;20695;-63
2022/09/14 08:48:27;;;;;;;2.23;1.30;;;;;;;;;;5054688;28;20244;-62
2022/09/14 08:50:55;;;;;;;1.90;1.30;;;;;;;;;;5057379;28;20206;-62
2022/09/14 08:53:24;;;;;;;3.70;1.40;;;;;;;;;;5055287;28;20253;-63
2022/09/14 08:55:54;;;;;;;1.93;1.23;;;;;;;;;;5054936;28;20209;-62
2022/09/14 08:58:30;;;;;;;5.63;1.37;;;;;;;;;;5052935;28;20580;-61
2022/09/14 09:01:02;;;;;;;2.67;1.13;;;;;;;;;;5054091;28;20251;-63
2022/09/14 09:03:48;;;;;;;4.30;1.40;;;;;;;;;;5055189;28;20597;-63
2022/09/14 09:06:18;;;;;;;1.70;1.20;;;;;;;;;;5049551;28;20293;-62
2022/09/14 09:08:51;;;;;;;3.70;1.80;;;;;;;;;;5044819;28;20235;-61
2022/09/14 09:11:20;;;;;;;4.47;1.50;;;;;;;;;;5058938;28;20246;-61
2022/09/14 09:13:50;;;;;;;1.63;1.10;;;;;;;;;;5060859;28;20257;-62
2022/09/14 09:16:22;;;;;;;1.83;1.50;;;;;;;;;;5052367;28;20208;-62
2022/09/14 09:18:52;;;;;;;1.73;1.30;;;;;;;;;;5055614;28;20255;-62
2022/09/14 09:21:23;;;;;;;1.57;1.20;;;;;;;;;;5063114;28;20245;-62
2022/09/14 09:23:52;;;;;;;1.30;1.20;;;;;;;;;;5051649;28;20220;-62
2022/09/14 09:26:24;;;;;;;1.40;1.30;;;;;;;;;;5049627;28;20204;-62
2022/09/14 09:28:53;;;;;;;1.40;1.23;;;;;;;;;;5057069;28;20211;-62
2022/09/14 09:31:27;;;;;;;2.00;1.30;;;;;;;;;;5050923;28;20701;-62
2022/09/14 09:33:55;;;;;;;5.17;1.80;;;;;;;;;;5055857;28;20226;-62
2022/09/14 09:36:23;;;;;;;13.30;2.97;;;;;;;;;;5051127;28;20551;-62
2022/09/14 09:38:51;;;;;;;4.93;1.70;;;;;;;;;;5065675;28;20228;-63
2022/09/14 09:41:21;;;;;;;7.07;1.93;;;;;;;;;;5056974;28;20206;-63
2022/09/14 09:43:57;;;;;;;3.77;1.60;;;;;;;;;;5062772;28;20290;-62
2022/09/14 09:46:27;;;;;;;2.17;1.10;;;;;;;;;;5054475;28;20207;-63
2022/09/14 09:48:56;;;;;;;2.40;1.80;;;;;;;;;;5057993;28;20209;-62
2022/09/14 09:51:28;;;;;;;2.93;1.40;;;;;;;;;;5056287;28;20209;-65
2022/09/14 09:53:58;;;;;;;3.10;1.87;;;;;;;;;;5054469;28;20222;-62
2022/09/14 09:56:27;;;;;;;4.10;1.80;;;;;;;;;;5057273;28;20291;-61
2022/09/14 09:58:55;;;;;;;6.10;1.73;;;;;;;;;;5064517;28;20250;-63
2022/09/14 10:01:28;;;;;;;2.60;1.43;;;;;;;;;;5061406;28;20259;-60
2022/09/14 10:04:01;;;;;;;1.70;1.60;;;;;;;;;;5053422;28;20219;-61
2022/09/14 10:06:29;;;;;;;2.13;1.60;;;;;;;;;;5046028;28;20208;-61
2022/09/14 10:08:58;;;;;;;2.83;1.40;;;;;;;;;;5047174;28;20212;-60
2022/09/14 10:11:30;;;;;;;22.90;6.20;;;;;;;;;;5060308;28;20211;-61
2022/09/14 10:13:58;;;;;;;2.83;1.83;;;;;;;;;;5046991;28;20218;-61
2022/09/14 10:16:30;;;;;;;2.87;1.60;;;;;;;;;;5062964;28;20218;-62
2022/09/14 10:19:01;;;;;;;7.47;2.63;;;;;;;;;;5055355;28;20225;-64
2022/09/14 10:21:30;;;;;;;6.37;2.47;;;;;;;;;;5057121;28;20568;-66
2022/09/14 10:24:03;;;;;;;3.33;1.83;;;;;;;;;;5060425;28;20222;-64
2022/09/14 10:26:33;;;;;;;4.27;1.93;;;;;;;;;;5051754;28;20203;-64
2022/09/14 10:29:20;;;;;;;5.23;1.80;;;;;;;;;;5049974;28;20209;-61
2022/09/14 10:31:50;;;;;;;5.00;1.70;;;;;;;;;;5057991;28;20211;-64
2022/09/14 10:34:20;;;;;;;8.30;4.10;;;;;;;;;;5050104;28;20221;-67
2022/09/14 10:36:53;;;;;;;22.93;13.80;;;;;;;;;;5059068;28;20213;-67
2022/09/14 10:39:25;;;;;;;18.37;8.77;;;;;;;;;;5054523;28;20205;-63
2022/09/14 10:41:56;;;;;;;8.67;5.90;;;;;;;;;;5060325;28;20213;-64
2022/09/14 10:44:32;;;;;;;8.03;4.53;;;;;;;;;;5055606;28;20222;-65
2022/09/14 10:47:33;;;;;;;5.87;4.00;;;;;;;;;;5053899;28;20209;-64
2022/09/14 10:50:09;;;;;;;4.10;2.70;;;;;;;;;;4997991;28;20221;-63
2022/09/14 10:52:41;;;;;;;4.63;2.40;;;;;;;;;;4989680;28;20226;-63
2022/09/14 10:55:23;;;;;;;2.23;1.63;;;;;;;;;;5028699;28;20222;-64
2022/09/14 10:57:56;;;;;;;4.57;2.03;;;;;;;;;;5056693;28;20230;-63
2022/09/14 11:00:24;;;;;;;4.20;2.10;;;;;;;;;;5053514;28;20217;-64
2022/09/14 11:03:00;;;;;;;2.77;2.10;;;;;;;;;;5053312;28;20212;-65
2022/09/14 11:05:30;;;;;;;4.33;1.83;;;;;;;;;;5051832;28;20210;-64
2022/09/14 11:08:06;;;;;;;2.13;1.77;;;;;;;;;;5053180;28;20566;-66
2022/09/14 11:10:36;;;;;;;4.57;1.23;;;;;;;;;;5049694;28;20197;-65
2022/09/14 11:13:11;;;;;;;2.63;1.60;;;;;;;;;;5057972;28;20704;-64
2022/09/14 11:15:43;;;;;;;2.13;1.50;;;;;;;;;;5050608;28;20213;-63
2022/09/14 11:18:17;;;;;;;2.43;1.27;;;;;;;;;;5062993;28;20357;-63
2022/09/14 11:20:50;;;;;;;2.53;1.63;;;;;;;;;;5055867;28;20214;-61
2022/09/14 11:23:25;;;;;;;1.83;1.70;;;;;;;;;;5059505;28;20227;-60
2022/09/14 11:25:55;;;;;;;1.97;1.77;;;;;;;;;;5056711;28;20202;-63
2022/09/14 11:28:25;;;;;;;3.03;1.47;;;;;;;;;;5044943;28;20201;-63
2022/09/14 11:30:58;;;;;;;1.97;1.77;;;;;;;;;;5055053;28;20589;-64
2022/09/14 11:33:28;;;;;;;3.43;1.87;;;;;;;;;;5053399;28;20955;-61
2022/09/14 11:36:04;;;;;;;2.20;1.40;;;;;;;;;;5058096;28;20631;-62
2022/09/14 11:38:35;;;;;;;1.60;1.50;;;;;;;;;;5058244;28;20222;-62
2022/09/14 11:41:07;;;;;;;3.17;1.47;;;;;;;;;;5050992;28;20202;-62
2022/09/14 11:43:41;;;;;;;3.10;1.60;;;;;;;;;;5050421;28;20797;-63
2022/09/14 11:46:11;;;;;;;1.73;1.43;;;;;;;;;;5058461;28;20226;-62
2022/09/14 11:48:41;;;;;;;3.43;1.30;;;;;;;;;;5055620;28;20210;-63
2022/09/14 11:51:15;;;;;;;1.80;1.17;;;;;;;;;;5058202;28;20287;-63
2022/09/14 11:53:51;;;;;;;7.03;1.80;;;;;;;;;;5055353;28;20232;-63
2022/09/14 11:56:25;;;;;;;4.47;1.50;;;;;;;;;;5062416;28;20283;-63
2022/09/14 11:58:56;;;;;;;7.00;2.10;;;;;;;;;;5055961;28;20584;-63
2022/09/14 12:01:28;;;;;;;2.30;1.80;;;;;;;;;;5054865;28;20212;-62
2022/09/14 12:04:18;;;;;;;3.17;1.77;;;;;;;;;;5058422;28;20231;-63
2022/09/14 12:06:52;;;;;;;2.70;1.70;;;;;;;;;;5051296;28;20213;-63
2022/09/14 12:09:40;;;;;;;1.80;1.70;;;;;;;;;;5048220;28;20198;-63
2022/09/14 12:12:25;;;;;;;7.03;1.83;;;;;;;;;;5060584;28;20285;-64
2022/09/14 12:14:58;;;;;;;3.03;1.60;;;;;;;;;;5067170;28;20254;-63
2022/09/14 12:17:28;;;;;;;4.43;2.00;;;;;;;;;;5064996;28;20234;-63
2022/09/14 12:20:25;;;;;;;6.23;1.80;;;;;;;;;;5063536;28;20211;-61
2022/09/14 12:23:04;;;;;;;4.13;1.80;;;;;;;;;;5057473;28;20206;-64
2022/09/14 12:25:33;;;;;;;3.67;2.00;;;;;;;;;;5065311;28;20211;-65
2022/09/14 12:28:01;;;;;;;4.37;2.13;;;;;;;;;;5044102;28;20219;-65
2022/09/14 12:30:52;;;;;;;6.40;2.00;;;;;;;;;;5065725;28;20230;-64
2022/09/14 12:33:39;;;;;;;2.90;1.90;;;;;;;;;;5042297;28;20235;-64
2022/09/14 12:36:09;;;;;;;6.87;2.00;;;;;;;;;;5051420;28;20261;-63
2022/09/14 12:39:06;;;;;;;6.32;2.60;;;;;;;;;;5064988;28;20230;-64
2022/09/14 12:41:52;;;;;;;5.67;2.47;;;;;;;;;;5056203;28;20203;-63
2022/09/14 12:44:31;;;;;;;4.13;2.10;;;;;;;;;;5054423;28;20222;-66
2022/09/14 12:47:19;;;;;;;4.53;1.93;;;;;;;;;;5065472;28;20199;-63
2022/09/14 12:49:48;;;;;;;5.07;1.67;;;;;;;;;;5052999;28;20198;-66
2022/09/14 12:52:30;;;;;;;3.37;2.00;;;;;;;;;;5052246;28;20238;-65
2022/09/14 12:55:05;;;;;;;5.63;1.73;;;;;;;;;;5062516;28;20262;-67
2022/09/14 12:57:37;;;;;;;2.83;1.70;;;;;;;;;;5044725;28;20721;-64
2022/09/14 13:00:11;;;;;;;3.60;1.73;;;;;;;;;;5057642;28;20619;-65
2022/09/14 13:03:01;;;;;;;4.53;1.80;;;;;;;;;;5051274;28;20616;-65
2022/09/14 13:05:29;;;;;;;6.57;2.27;;;;;;;;;;5040934;28;20210;-62
2022/09/14 13:08:11;;;;;;;6.10;1.90;;;;;;;;;;5047019;28;20209;-62
2022/09/14 13:10:46;;;;;;;4.90;1.50;;;;;;;;;;5053922;28;20208;-61
2022/09/14 13:13:16;;;;;;;2.67;1.53;;;;;;;;;;5059931;28;20314;-60
2022/09/14 13:15:55;;;;;;;3.47;1.50;;;;;;;;;;5059175;28;20202;-59
2022/09/14 13:18:33;;;;;;;3.30;2.22;;;;;;;;;;5048667;28;20222;-63
2022/09/14 13:21:02;;;;;;;3.70;1.30;;;;;;;;;;5059352;28;20297;-63
2022/09/14 13:23:32;;;;;;;2.60;1.23;;;;;;;;;;5059682;28;20228;-64
2022/09/14 13:26:08;;;;;;;4.15;1.63;;;;;;;;;;5059402;28;20210;-64
2022/09/14 13:28:36;;;;;;;6.28;1.73;;;;;;;;;;5058504;28;20194;-63
2022/09/14 13:31:05;;;;;;;5.60;1.70;;;;;;;;;;5060157;28;20213;-63
2022/09/14 13:33:33;;;;;;;3.80;1.25;;;;;;;;;;5057098;28;20617;-63
2022/09/14 13:36:02;;;;;;;2.43;1.33;;;;;;;;;;5055342;28;20227;-64
2022/09/14 13:38:31;;;;;;;5.30;1.60;;;;;;;;;;5059734;28;20210;-63
2022/09/14 13:41:05;;;;;;;3.42;1.55;;;;;;;;;;5056204;28;20615;-63
2022/09/14 13:43:33;;;;;;;5.50;1.40;;;;;;;;;;5055090;28;20218;-64
2022/09/14 13:46:02;;;;;;;3.30;2.10;;;;;;;;;;5057602;28;20204;-64
2022/09/14 13:48:30;;;;;;;2.63;1.70;;;;;;;;;;5056832;28;20206;-63
2022/09/14 13:50:58;;;;;;;3.28;1.27;;;;;;;;;;5054540;28;20899;-62
2022/09/14 13:53:40;;;;;;;3.53;1.35;;;;;;;;;;5057872;28;20235;-63
2022/09/14 13:56:20;;;;;;;6.85;1.73;;;;;;;;;;5056639;28;20600;-61
2022/09/14 13:58:49;;;;;;;7.20;1.73;;;;;;;;;;5056678;28;20210;-62
2022/09/14 14:01:27;;;;;;;6.05;1.40;;;;;;;;;;5052040;28;20271;-65
2022/09/14 14:03:57;;;;;;;5.33;2.03;;;;;;;;;;5054738;28;20277;-64
2022/09/14 14:06:25;;;;;;;4.82;1.75;;;;;;;;;;5057957;28;20226;-63
2022/09/14 14:08:59;;;;;;;5.47;1.70;;;;;;;;;;5059974;28;20677;-65
2022/09/14 14:11:33;;;;;;;3.53;2.00;;;;;;;;;;5058663;28;20230;-69
2022/09/14 14:14:11;;;;;;;5.82;1.58;;;;;;;;;;5061484;28;20691;-69
2022/09/14 14:16:39;;;;;;;3.03;1.50;;;;;;;;;;5049699;28;20657;-71
2022/09/14 14:19:22;;;;;;;8.40;1.85;;;;;;;;;;5059260;28;20316;-67
2022/09/14 14:21:50;;;;;;;5.88;1.52;;;;;;;;;;5066275;28;20224;-67
2022/09/14 14:24:26;;;;;;;4.45;2.00;;;;;;;;;;5060913;28;20229;-62
2022/09/14 14:26:57;;;;;;;6.30;2.00;;;;;;;;;;5064757;28;20215;-61
2022/09/14 14:29:25;;;;;;;5.55;1.33;;;;;;;;;;5059534;28;20210;-61
2022/09/14 14:31:54;;;;;;;4.43;1.40;;;;;;;;;;5048543;28;20209;-61
2022/09/14 14:34:23;;;;;;;5.03;1.45;;;;;;;;;;5062275;28;20228;-61
2022/09/14 14:36:51;;;;;;;7.15;1.58;;;;;;;;;;5059015;28;20214;-61
2022/09/14 14:39:19;;;;;;;7.45;1.75;;;;;;;;;;5058017;28;20319;-61
2022/09/14 14:41:48;;;;;;;4.60;1.55;;;;;;;;;;5056727;28;20591;-61
2022/09/14 14:44:19;;;;;;;6.45;1.85;;;;;;;;;;5056413;28;20229;-61
2022/09/14 14:46:47;;;;;;;4.82;1.55;;;;;;;;;;5063266;28;20203;-61
2022/09/14 14:49:16;;;;;;;6.50;1.48;;;;;;;;;;5067051;28;20237;-61
2022/09/14 14:51:44;;;;;;;6.60;2.13;;;;;;;;;;5057997;28;20599;-61
2022/09/14 14:54:15;;;;;;;3.97;1.65;;;;;;;;;;5065856;28;20582;-61
2022/09/14 14:56:45;;;;;;;3.80;1.83;;;;;;;;;;5047233;28;20214;-61
2022/09/14 14:59:23;;;;;;;4.78;1.85;;;;;;;;;;5071714;28;20195;-61
2022/09/14 15:01:52;;;;;;;6.00;1.65;;;;;;;;;;5059963;28;20666;-61
2022/09/14 15:04:20;;;;;;;3.57;1.70;;;;;;;;;;5058919;28;20724;-61